Time;durP1;ratioP1;P1;durP2;ratioP2;P2;SDS_P1;SDS_P2;PMS_P1;PMS_P2;Temp;Humidity;BMP_temperature;BMP_pressure;BME280_temperature;BME280_humidity;BME280_pressure;Samples;Min_cycle;Max_cycle;Signal;HPM_P1;HPM_P2
2023/12/28 00:00:38;;;;;;;19.75;11.38;;;6.20;99.90;;;;;;5062803;28;20057;-74
2023/12/28 00:03:04;;;;;;;17.75;12.40;;;6.30;99.90;;;;;;5058400;28;20081;-74
2023/12/28 00:05:30;;;;;;;20.63;12.82;;;6.30;99.90;;;;;;5064915;28;20031;-73
2023/12/28 00:07:57;;;;;;;17.23;11.15;;;6.30;99.90;;;;;;5055954;28;20052;-75
2023/12/28 00:10:25;;;;;;;21.83;12.88;;;6.20;99.90;;;;;;5052594;28;20456;-73
2023/12/28 00:12:50;;;;;;;19.98;12.90;;;6.20;99.90;;;;;;5052540;28;20108;-73
2023/12/28 00:15:16;;;;;;;17.52;11.13;;;6.20;99.90;;;;;;5052192;28;20119;-74
2023/12/28 00:17:42;;;;;;;17.23;11.82;;;6.20;99.90;;;;;;5051997;28;20462;-74
2023/12/28 00:20:08;;;;;;;16.75;12.25;;;6.20;99.90;;;;;;5049536;28;20508;-74
2023/12/28 00:22:33;;;;;;;23.70;12.43;;;6.20;99.90;;;;;;5051778;28;20037;-73
2023/12/28 00:24:59;;;;;;;17.98;12.75;;;6.20;99.90;;;;;;5052241;28;20359;-74
2023/12/28 00:27:25;;;;;;;22.65;12.00;;;6.20;99.90;;;;;;5052557;28;20028;-74
2023/12/28 00:29:50;;;;;;;19.80;13.00;;;6.20;99.90;;;;;;5051469;28;20059;-73
2023/12/28 00:32:16;;;;;;;20.23;13.15;;;6.20;99.90;;;;;;5052185;28;20032;-73
2023/12/28 00:34:41;;;;;;;19.50;12.68;;;6.20;99.90;;;;;;5051158;28;20114;-73
2023/12/28 00:37:07;;;;;;;21.60;13.15;;;6.20;99.90;;;;;;5052141;28;20032;-73
2023/12/28 00:39:34;;;;;;;20.63;13.60;;;6.10;99.90;;;;;;5050682;28;20029;-72
2023/12/28 00:42:00;;;;;;;20.40;12.80;;;6.20;99.90;;;;;;5051917;28;20203;-74
2023/12/28 00:44:25;;;;;;;18.55;12.77;;;6.10;99.90;;;;;;5054668;28;20103;-73
2023/12/28 00:46:51;;;;;;;19.35;12.23;;;6.10;99.90;;;;;;5051563;28;20031;-74
2023/12/28 00:49:16;;;;;;;20.45;13.50;;;6.10;99.90;;;;;;5052235;28;20028;-74
2023/12/28 00:51:42;;;;;;;19.63;13.00;;;6.10;99.90;;;;;;5051901;28;20024;-73
2023/12/28 00:54:08;;;;;;;21.40;13.65;;;6.00;99.90;;;;;;5052039;28;20465;-73
2023/12/28 00:56:33;;;;;;;19.48;13.30;;;6.00;99.90;;;;;;5051510;28;20159;-74
2023/12/28 00:59:01;;;;;;;23.50;14.10;;;6.00;99.90;;;;;;5051476;28;20055;-73
2023/12/28 01:01:27;;;;;;;20.83;13.63;;;6.00;99.90;;;;;;5052199;28;20068;-74
2023/12/28 01:03:52;;;;;;;23.58;14.25;;;6.00;99.90;;;;;;5051901;28;20064;-73
2023/12/28 01:06:18;;;;;;;22.30;14.77;;;6.00;99.90;;;;;;5052102;28;20060;-73
2023/12/28 01:08:44;;;;;;;23.50;14.40;;;6.00;99.90;;;;;;5051556;28;20029;-73
2023/12/28 01:11:12;;;;;;;21.90;15.18;;;6.00;99.90;;;;;;5052183;28;20025;-74
2023/12/28 01:13:37;;;;;;;19.50;14.07;;;6.00;99.90;;;;;;5051726;28;20033;-73
2023/12/28 01:16:04;;;;;;;21.38;14.70;;;6.00;99.90;;;;;;5051929;28;20385;-74
2023/12/28 01:18:29;;;;;;;28.73;16.20;;;6.00;99.90;;;;;;5052099;28;20036;-74
2023/12/28 01:20:55;;;;;;;22.42;14.65;;;6.00;99.90;;;;;;5051668;28;20018;-73
2023/12/28 01:23:20;;;;;;;26.00;15.80;;;6.00;99.90;;;;;;5052088;28;20462;-73
2023/12/28 01:25:46;;;;;;;24.60;15.38;;;6.00;99.90;;;;;;5051274;28;20056;-73
2023/12/28 01:28:12;;;;;;;23.48;15.05;;;6.00;99.90;;;;;;5051981;28;20036;-74
2023/12/28 01:30:37;;;;;;;26.10;16.52;;;6.00;99.90;;;;;;5051505;28;20032;-73
2023/12/28 01:33:03;;;;;;;24.77;14.77;;;6.00;99.90;;;;;;5052026;28;20102;-73
2023/12/28 01:35:29;;;;;;;21.83;15.15;;;6.00;99.90;;;;;;5052029;28;20112;-73
2023/12/28 01:37:55;;;;;;;26.95;16.23;;;6.00;99.90;;;;;;5051350;28;20063;-74
2023/12/28 01:40:21;;;;;;;26.88;16.00;;;6.10;99.90;;;;;;5052094;28;20521;-74
2023/12/28 01:42:46;;;;;;;24.90;16.70;;;6.10;99.90;;;;;;5051403;28;20113;-74
2023/12/28 01:45:12;;;;;;;26.27;16.00;;;6.10;99.90;;;;;;5051430;28;20098;-75
2023/12/28 01:47:38;;;;;;;26.30;18.25;;;6.10;99.90;;;;;;5051326;28;20029;-74
2023/12/28 01:50:06;;;;;;;28.77;17.77;;;6.20;99.90;;;;;;5051717;28;20021;-74
2023/12/28 01:52:32;;;;;;;26.35;17.65;;;6.20;99.90;;;;;;5051677;28;20040;-74
2023/12/28 01:54:57;;;;;;;26.40;16.73;;;6.20;99.90;;;;;;5051177;28;20029;-73
2023/12/28 01:57:24;;;;;;;33.63;18.60;;;6.20;99.90;;;;;;5051686;28;20386;-74
2023/12/28 01:59:50;;;;;;;28.45;17.77;;;6.30;99.90;;;;;;5050843;28;20357;-73
2023/12/28 02:02:16;;;;;;;31.23;17.35;;;6.30;99.90;;;;;;5051630;28;20036;-74
2023/12/28 02:04:42;;;;;;;28.00;17.95;;;6.30;99.90;;;;;;5051174;28;20052;-73
2023/12/28 02:07:09;;;;;;;29.30;18.48;;;6.30;99.90;;;;;;5051326;28;20025;-74
2023/12/28 02:09:34;;;;;;;27.65;19.48;;;6.30;99.90;;;;;;5051566;28;20079;-74
2023/12/28 02:12:00;;;;;;;30.70;18.52;;;6.30;99.90;;;;;;5051360;28;20064;-74
2023/12/28 02:14:26;;;;;;;32.05;19.17;;;6.30;99.90;;;;;;5051614;28;20047;-74
2023/12/28 02:17:09;;;;;;;28.80;19.80;;;6.30;99.90;;;;;;5051254;28;20040;-74
2023/12/28 02:19:51;;;;;;;31.85;19.83;;;6.30;99.90;;;;;;5055217;28;20132;-73
2023/12/28 02:22:17;;;;;;;27.30;18.13;;;6.30;99.90;;;;;;5055067;28;20119;-73
2023/12/28 02:25:06;;;;;;;33.40;19.85;;;6.40;99.90;;;;;;5054550;28;20087;-74
2023/12/28 02:27:33;;;;;;;30.73;19.23;;;6.30;99.90;;;;;;5055153;28;20389;-74
2023/12/28 02:29:59;;;;;;;31.67;20.73;;;6.30;99.90;;;;;;5054474;28;20094;-74
2023/12/28 02:32:52;;;;;;;36.42;21.13;;;6.30;99.90;;;;;;5055028;28;20029;-74
2023/12/28 02:35:24;;;;;;;33.92;21.48;;;6.30;99.90;;;;;;5054840;28;20052;-74
2023/12/28 02:37:53;;;;;;;33.60;20.50;;;6.30;99.90;;;;;;5058812;28;20044;-74
2023/12/28 02:40:20;;;;;;;36.38;22.13;;;6.20;99.90;;;;;;5074988;28;20082;-74
2023/12/28 02:42:46;;;;;;;35.78;21.17;;;6.20;99.90;;;;;;5074329;28;20051;-74
2023/12/28 02:45:11;;;;;;;38.20;22.20;;;6.20;99.90;;;;;;5074464;28;20028;-73
2023/12/28 02:47:37;;;;;;;36.10;22.83;;;6.20;99.90;;;;;;5074623;28;20025;-74
2023/12/28 02:50:03;;;;;;;33.90;21.67;;;6.20;99.90;;;;;;5074259;28;20032;-74
2023/12/28 02:52:28;;;;;;;33.15;21.13;;;6.20;99.90;;;;;;5074446;28;20024;-74
2023/12/28 02:54:54;;;;;;;34.17;21.77;;;6.20;99.90;;;;;;5073943;28;20021;-73
2023/12/28 02:57:19;;;;;;;29.92;20.85;;;6.10;99.90;;;;;;5058678;28;20028;-74
2023/12/28 02:59:45;;;;;;;39.05;21.40;;;6.10;99.90;;;;;;5054094;28;20556;-73
2023/12/28 03:02:11;;;;;;;38.85;23.23;;;6.10;99.90;;;;;;5054760;28;20111;-73
2023/12/28 03:04:37;;;;;;;40.20;22.75;;;6.10;99.90;;;;;;5054271;28;20040;-74
2023/12/28 03:07:02;;;;;;;36.75;22.33;;;6.10;99.90;;;;;;5054144;28;20826;-74
2023/12/28 03:09:28;;;;;;;38.15;23.02;;;6.10;99.90;;;;;;5053888;28;20052;-74
2023/12/28 03:11:53;;;;;;;38.20;23.08;;;6.00;99.90;;;;;;5053687;28;20068;-74
2023/12/28 03:14:21;;;;;;;35.70;21.98;;;6.00;99.90;;;;;;5054387;28;20036;-74
2023/12/28 03:16:46;;;;;;;36.03;22.77;;;6.00;99.90;;;;;;5053540;28;20076;-75
2023/12/28 03:19:12;;;;;;;37.03;22.90;;;6.00;99.90;;;;;;5054049;28;20040;-73
2023/12/28 03:21:42;;;;;;;41.53;24.02;;;6.00;99.90;;;;;;5053728;28;20470;-74
2023/12/28 03:24:07;;;;;;;40.60;23.02;;;5.90;99.90;;;;;;5053482;28;20111;-74
2023/12/28 03:26:40;;;;;;;38.67;22.58;;;5.90;99.90;;;;;;5054090;28;20505;-73
2023/12/28 03:29:07;;;;;;;35.67;22.55;;;6.00;99.90;;;;;;5052977;28;20043;-73
2023/12/28 03:31:33;;;;;;;37.28;22.88;;;5.90;99.90;;;;;;5053829;28;20025;-73
2023/12/28 03:33:59;;;;;;;39.47;23.83;;;5.90;99.90;;;;;;5052659;28;20451;-73
2023/12/28 03:36:25;;;;;;;35.58;22.70;;;5.90;99.90;;;;;;5052737;28;20033;-74
2023/12/28 03:38:50;;;;;;;36.88;23.55;;;5.90;99.90;;;;;;5052202;28;20064;-72
2023/12/28 03:41:20;;;;;;;38.78;24.00;;;5.80;99.90;;;;;;5053165;28;20056;-73
2023/12/28 03:43:46;;;;;;;40.50;24.65;;;5.80;99.90;;;;;;5052820;28;20071;-72
2023/12/28 03:46:13;;;;;;;42.60;24.48;;;5.80;99.90;;;;;;5053040;28;20112;-73
2023/12/28 03:48:39;;;;;;;40.97;23.55;;;5.80;99.90;;;;;;5050425;28;20025;-74
2023/12/28 03:51:05;;;;;;;41.55;23.38;;;5.80;99.90;;;;;;5052255;28;20056;-73
2023/12/28 03:53:31;;;;;;;41.95;24.63;;;5.80;99.90;;;;;;5052223;28;20466;-74
2023/12/28 03:55:59;;;;;;;38.40;24.25;;;5.80;99.90;;;;;;5052347;28;20422;-74
2023/12/28 03:58:25;;;;;;;40.92;25.30;;;5.90;99.90;;;;;;5052721;28;20448;-74
2023/12/28 04:00:52;;;;;;;45.42;24.85;;;5.80;99.90;;;;;;5052561;28;20036;-73
2023/12/28 04:03:22;;;;;;;40.42;24.48;;;5.80;99.90;;;;;;5052145;28;20037;-74
2023/12/28 04:05:47;;;;;;;46.80;25.48;;;5.90;99.90;;;;;;5051986;28;20071;-74
2023/12/28 04:08:13;;;;;;;35.97;23.00;;;5.90;99.90;;;;;;5052473;28;20021;-74
2023/12/28 04:10:39;;;;;;;37.72;24.65;;;5.90;99.90;;;;;;5052617;28;20071;-74
2023/12/28 04:13:04;;;;;;;40.22;23.77;;;5.90;99.90;;;;;;5051920;28;20021;-73
2023/12/28 04:15:30;;;;;;;44.40;26.50;;;5.90;99.90;;;;;;5052365;28;20064;-73
2023/12/28 04:17:56;;;;;;;43.97;27.13;;;5.90;99.90;;;;;;5051936;28;20028;-73
2023/12/28 04:20:22;;;;;;;50.20;27.77;;;5.90;99.90;;;;;;5052050;28;20032;-73
2023/12/28 04:22:47;;;;;;;49.83;26.27;;;5.90;99.90;;;;;;5052104;28;20021;-73
2023/12/28 04:25:13;;;;;;;50.95;29.08;;;5.90;99.90;;;;;;5051475;28;20390;-72
2023/12/28 04:27:39;;;;;;;52.72;30.02;;;5.90;99.90;;;;;;5052264;28;20032;-73
2023/12/28 04:30:06;;;;;;;45.85;28.15;;;5.90;99.90;;;;;;5052493;28;20063;-73
2023/12/28 04:32:34;;;;;;;42.85;26.13;;;5.90;99.90;;;;;;5051896;28;20035;-73
2023/12/28 04:35:00;;;;;;;44.22;26.48;;;5.90;99.90;;;;;;5049218;28;20021;-74
2023/12/28 04:37:29;;;;;;;46.97;26.88;;;5.90;99.90;;;;;;5052221;28;20089;-73
2023/12/28 04:39:54;;;;;;;50.55;28.10;;;5.90;99.90;;;;;;5051050;28;20106;-74
2023/12/28 04:42:20;;;;;;;50.05;27.48;;;5.90;99.90;;;;;;5052101;28;20056;-74
2023/12/28 04:44:45;;;;;;;47.38;27.63;;;5.90;99.90;;;;;;5051978;28;20100;-72
2023/12/28 04:47:11;;;;;;;50.05;28.45;;;5.90;99.90;;;;;;5051461;28;20609;-73
2023/12/28 04:49:36;;;;;;;50.33;29.08;;;5.90;99.90;;;;;;5051954;28;20025;-73
2023/12/28 04:52:02;;;;;;;53.63;31.40;;;5.90;99.90;;;;;;5051812;28;20025;-73
2023/12/28 04:54:28;;;;;;;57.70;31.67;;;5.90;99.90;;;;;;5052075;28;20048;-73
2023/12/28 04:56:54;;;;;;;58.60;32.30;;;5.90;99.90;;;;;;5051095;28;20457;-73
2023/12/28 04:59:19;;;;;;;61.15;32.67;;;5.90;99.90;;;;;;5051714;28;20216;-74
2023/12/28 05:01:45;;;;;;;59.17;33.30;;;5.90;99.90;;;;;;5052580;28;20078;-74
2023/12/28 05:04:11;;;;;;;64.10;34.45;;;5.90;99.90;;;;;;5058905;28;20423;-75
2023/12/28 05:06:37;;;;;;;59.55;34.45;;;5.90;99.90;;;;;;5069204;28;20457;-74
2023/12/28 05:09:03;;;;;;;65.78;34.40;;;5.90;99.90;;;;;;5062667;28;20151;-74
2023/12/28 05:11:29;;;;;;;64.72;33.95;;;5.90;99.90;;;;;;5065223;28;20537;-75
2023/12/28 05:13:55;;;;;;;66.38;34.63;;;5.90;99.90;;;;;;5064619;28;20103;-75
2023/12/28 05:16:20;;;;;;;53.50;31.60;;;5.90;99.90;;;;;;5062951;28;20032;-74
2023/12/28 05:18:47;;;;;;;50.83;30.90;;;5.90;99.90;;;;;;5060589;28;20116;-74
2023/12/28 05:21:13;;;;;;;44.30;28.00;;;5.90;99.90;;;;;;5057717;28;20021;-74
2023/12/28 05:23:38;;;;;;;45.58;28.58;;;6.00;99.90;;;;;;5057102;28;20381;-76
2023/12/28 05:26:04;;;;;;;46.00;26.67;;;6.00;99.90;;;;;;5057572;28;20036;-73
2023/12/28 05:28:30;;;;;;;43.22;27.48;;;6.00;99.90;;;;;;5059191;28;20064;-73
2023/12/28 05:30:56;;;;;;;49.95;30.10;;;5.90;99.90;;;;;;5054807;28;20032;-73
2023/12/28 05:33:22;;;;;;;54.65;31.40;;;6.00;99.90;;;;;;5059379;28;20021;-72
2023/12/28 05:35:48;;;;;;;64.05;33.50;;;5.90;99.90;;;;;;5061058;28;20179;-75
2023/12/28 05:38:14;;;;;;;60.58;32.55;;;5.90;99.90;;;;;;5059552;28;20024;-73
2023/12/28 05:40:39;;;;;;;64.85;34.35;;;5.90;99.90;;;;;;5061345;28;20024;-74
2023/12/28 05:43:05;;;;;;;62.10;34.60;;;5.90;99.90;;;;;;5058962;28;20450;-73
2023/12/28 05:45:31;;;;;;;64.93;34.88;;;6.00;99.90;;;;;;5055021;28;20107;-74
2023/12/28 05:47:56;;;;;;;62.25;32.80;;;5.90;99.90;;;;;;5050258;28;20029;-72
2023/12/28 05:50:22;;;;;;;64.03;33.75;;;5.90;99.90;;;;;;5050588;28;20079;-73
2023/12/28 05:52:48;;;;;;;61.85;32.60;;;5.90;99.90;;;;;;5054509;28;20021;-74
2023/12/28 05:55:13;;;;;;;61.53;32.33;;;5.90;99.90;;;;;;5054624;28;20398;-73
2023/12/28 05:57:39;;;;;;;57.15;31.73;;;5.90;99.90;;;;;;5054922;28;20021;-74
2023/12/28 06:00:06;;;;;;;59.30;31.80;;;5.90;99.90;;;;;;5053888;28;20128;-73
2023/12/28 06:02:32;;;;;;;55.95;30.60;;;5.90;99.90;;;;;;5054856;28;20083;-73
2023/12/28 06:04:57;;;;;;;53.65;29.35;;;6.00;99.90;;;;;;5053039;28;20458;-73
2023/12/28 06:07:23;;;;;;;55.03;29.73;;;6.00;99.90;;;;;;5054742;28;20025;-73
2023/12/28 06:09:49;;;;;;;54.65;29.88;;;5.90;99.90;;;;;;5054619;28;20079;-74
2023/12/28 06:12:14;;;;;;;57.75;29.30;;;5.90;99.90;;;;;;5054402;28;20147;-74
2023/12/28 06:14:40;;;;;;;54.78;29.55;;;5.90;99.90;;;;;;5052006;28;20017;-73
2023/12/28 06:17:06;;;;;;;53.38;29.95;;;5.90;99.90;;;;;;5054238;28;20466;-73
2023/12/28 06:19:32;;;;;;;53.92;29.55;;;5.80;99.90;;;;;;5054608;28;20078;-73
2023/12/28 06:21:58;;;;;;;55.13;29.90;;;5.90;99.90;;;;;;5054172;28;20051;-73
2023/12/28 06:24:24;;;;;;;54.00;30.33;;;5.80;99.90;;;;;;5054451;28;20086;-73
2023/12/28 06:26:50;;;;;;;52.17;30.13;;;5.80;99.90;;;;;;5054410;28;20028;-73
2023/12/28 06:29:16;;;;;;;54.45;29.67;;;5.80;99.90;;;;;;5053825;28;20033;-74
2023/12/28 06:31:42;;;;;;;53.58;29.25;;;5.80;99.90;;;;;;5054215;28;20044;-75
2023/12/28 06:34:07;;;;;;;53.72;31.02;;;5.80;99.90;;;;;;5056440;28;20121;-73
2023/12/28 06:36:33;;;;;;;55.13;30.73;;;5.80;99.90;;;;;;5053878;28;20040;-73
2023/12/28 06:38:59;;;;;;;57.67;30.95;;;5.80;99.90;;;;;;5054211;28;20024;-74
2023/12/28 06:41:25;;;;;;;60.83;32.38;;;5.80;99.90;;;;;;5054079;28;20036;-73
2023/12/28 06:43:51;;;;;;;60.00;31.65;;;5.80;99.90;;;;;;5054222;28;20017;-74
2023/12/28 06:46:18;;;;;;;59.05;33.30;;;5.80;99.90;;;;;;5053658;28;20029;-73
2023/12/28 06:48:43;;;;;;;57.88;31.92;;;5.80;99.90;;;;;;5054068;28;20527;-74
2023/12/28 06:51:10;;;;;;;57.22;30.85;;;5.90;99.90;;;;;;5053669;28;20044;-73
2023/12/28 06:53:35;;;;;;;57.17;32.30;;;5.90;99.90;;;;;;5054003;28;20075;-73
2023/12/28 06:56:01;;;;;;;63.20;32.85;;;5.90;99.90;;;;;;5053731;28;20025;-73
2023/12/28 06:58:27;;;;;;;54.95;32.15;;;5.90;99.90;;;;;;5053742;28;20029;-74
2023/12/28 07:00:52;;;;;;;60.80;31.85;;;6.00;99.90;;;;;;5053380;28;20041;-73
2023/12/28 07:03:18;;;;;;;56.28;30.40;;;5.90;99.90;;;;;;5052764;28;20386;-74
2023/12/28 07:05:44;;;;;;;59.45;28.80;;;5.90;99.90;;;;;;5054250;28;20032;-74
2023/12/28 07:08:09;;;;;;;53.38;30.13;;;6.00;99.90;;;;;;5053740;28;20059;-74
2023/12/28 07:10:35;;;;;;;55.50;30.98;;;5.90;99.90;;;;;;5053812;28;20025;-74
2023/12/28 07:13:01;;;;;;;58.72;32.03;;;6.00;99.90;;;;;;5052888;28;20033;-74
2023/12/28 07:15:27;;;;;;;50.95;30.55;;;5.90;99.90;;;;;;5053206;28;20055;-74
2023/12/28 07:17:53;;;;;;;56.70;31.45;;;6.00;99.90;;;;;;5053595;28;20021;-74
2023/12/28 07:20:18;;;;;;;58.42;29.65;;;5.90;99.90;;;;;;5053129;28;20461;-74
2023/12/28 07:22:44;;;;;;;59.42;31.50;;;5.90;99.90;;;;;;5053455;28;20056;-73
2023/12/28 07:25:10;;;;;;;54.45;29.55;;;5.90;99.90;;;;;;5052708;28;20077;-73
2023/12/28 07:27:36;;;;;;;53.50;28.05;;;5.90;99.90;;;;;;5053381;28;20029;-73
2023/12/28 07:30:02;;;;;;;57.40;29.75;;;5.90;99.90;;;;;;5053554;28;20444;-73
2023/12/28 07:32:31;;;;;;;53.35;29.27;;;5.90;99.90;;;;;;5053264;28;20112;-74
2023/12/28 07:34:58;;;;;;;51.78;27.90;;;5.90;99.90;;;;;;5053487;28;20025;-74
2023/12/28 07:37:24;;;;;;;54.33;29.05;;;5.90;99.90;;;;;;5052927;28;20522;-73
2023/12/28 07:39:49;;;;;;;59.63;30.15;;;5.80;99.90;;;;;;5053569;28;20124;-74
2023/12/28 07:42:15;;;;;;;50.80;27.52;;;5.90;99.90;;;;;;5053427;28;20025;-73
2023/12/28 07:44:41;;;;;;;51.55;26.60;;;5.80;99.90;;;;;;5053561;28;20477;-73
2023/12/28 07:47:07;;;;;;;49.60;27.05;;;5.80;99.90;;;;;;5052986;28;20449;-73
2023/12/28 07:49:32;;;;;;;47.00;25.88;;;5.80;99.90;;;;;;5053556;28;20442;-73
2023/12/28 07:51:58;;;;;;;47.63;27.30;;;5.80;99.90;;;;;;5052873;28;20056;-73
2023/12/28 07:54:23;;;;;;;49.90;25.60;;;5.80;99.90;;;;;;5052498;28;20021;-74
2023/12/28 07:56:49;;;;;;;47.13;25.40;;;5.80;99.90;;;;;;5052874;28;20068;-74
2023/12/28 07:59:15;;;;;;;49.38;25.48;;;5.80;99.90;;;;;;5052328;28;20145;-74
2023/12/28 08:01:40;;;;;;;49.35;25.63;;;5.80;99.90;;;;;;5053303;28;20021;-73
2023/12/28 08:04:06;;;;;;;50.17;24.90;;;5.90;99.90;;;;;;5051913;28;20025;-73
2023/12/28 08:06:32;;;;;;;54.80;26.02;;;5.80;99.90;;;;;;5053117;28;20032;-73
2023/12/28 08:09:01;;;;;;;48.72;26.63;;;5.80;99.90;;;;;;5053046;28;20029;-73
2023/12/28 08:11:27;;;;;;;47.70;24.95;;;5.80;99.90;;;;;;5052521;28;20335;-75
2023/12/28 08:13:53;;;;;;;49.08;25.40;;;5.80;99.90;;;;;;5052647;28;20028;-73
2023/12/28 08:16:19;;;;;;;49.97;25.88;;;5.80;99.90;;;;;;5051582;28;20059;-73
2023/12/28 08:18:45;;;;;;;43.78;23.60;;;5.80;99.90;;;;;;5052592;28;20465;-74
2023/12/28 08:21:11;;;;;;;51.70;25.65;;;5.80;99.90;;;;;;5052493;28;20493;-73
2023/12/28 08:23:36;;;;;;;46.45;24.40;;;5.80;99.90;;;;;;5052823;28;20044;-74
2023/12/28 08:26:02;;;;;;;47.28;24.42;;;5.80;99.90;;;;;;5052825;28;20382;-73
2023/12/28 08:28:28;;;;;;;46.50;22.50;;;5.80;99.90;;;;;;5050963;28;20068;-74
2023/12/28 08:30:55;;;;;;;42.85;22.90;;;5.80;99.90;;;;;;5052734;28;20025;-75
2023/12/28 08:33:21;;;;;;;44.00;22.50;;;5.80;99.90;;;;;;5052357;28;20021;-74
2023/12/28 08:35:46;;;;;;;50.88;23.80;;;5.80;99.90;;;;;;5052716;28;20140;-74
2023/12/28 08:38:12;;;;;;;51.55;24.63;;;5.70;99.90;;;;;;5052282;28;20187;-74
2023/12/28 08:40:38;;;;;;;47.80;23.75;;;5.70;99.90;;;;;;5052592;28;20454;-73
2023/12/28 08:43:04;;;;;;;49.95;25.20;;;5.70;99.90;;;;;;5069067;28;20064;-73
2023/12/28 08:45:30;;;;;;;44.20;23.30;;;5.60;99.90;;;;;;5072131;28;20523;-73
2023/12/28 08:47:55;;;;;;;50.05;24.38;;;5.60;99.90;;;;;;5072197;28;20032;-73
2023/12/28 08:50:21;;;;;;;44.17;22.63;;;5.70;99.90;;;;;;5072110;28;20029;-74
2023/12/28 08:52:47;;;;;;;49.53;24.50;;;5.70;99.90;;;;;;5072162;28;20473;-74
2023/12/28 08:55:14;;;;;;;46.35;23.08;;;5.70;99.90;;;;;;5072140;28;20025;-74
2023/12/28 08:57:39;;;;;;;38.72;20.90;;;5.70;99.90;;;;;;5051783;28;20028;-74
2023/12/28 09:00:06;;;;;;;41.55;22.13;;;5.70;99.90;;;;;;5052065;28;20390;-74
2023/12/28 09:02:32;;;;;;;46.28;23.15;;;5.70;99.90;;;;;;5052285;28;20462;-75
2023/12/28 09:05:00;;;;;;;38.53;21.48;;;5.70;99.90;;;;;;5052005;28;20039;-74
2023/12/28 09:07:26;;;;;;;39.92;20.55;;;5.70;99.90;;;;;;5051824;28;20025;-74
2023/12/28 09:09:52;;;;;;;40.45;22.50;;;5.70;99.90;;;;;;5050935;28;20028;-74
2023/12/28 09:12:18;;;;;;;43.75;22.15;;;5.70;99.90;;;;;;5050209;28;20074;-74
2023/12/28 09:14:43;;;;;;;36.70;19.63;;;5.70;99.90;;;;;;5052175;28;20033;-74
2023/12/28 09:17:09;;;;;;;34.28;19.92;;;5.70;99.90;;;;;;5051577;28;20044;-73
2023/12/28 09:19:35;;;;;;;40.30;21.15;;;5.70;99.90;;;;;;5051716;28;20036;-74
2023/12/28 09:22:00;;;;;;;41.80;22.50;;;5.60;99.90;;;;;;5051869;28;20029;-74
2023/12/28 09:24:26;;;;;;;40.88;21.65;;;5.70;99.90;;;;;;5051758;28;20047;-74
2023/12/28 09:26:52;;;;;;;42.50;21.23;;;5.70;99.90;;;;;;5053907;28;20104;-73
2023/12/28 09:29:18;;;;;;;36.65;20.42;;;5.70;99.90;;;;;;5055781;28;20346;-74
2023/12/28 09:31:45;;;;;;;42.85;22.05;;;5.70;99.90;;;;;;5056127;28;20029;-73
2023/12/28 09:34:11;;;;;;;40.60;22.88;;;5.70;99.90;;;;;;5055741;28;20025;-74
2023/12/28 09:36:37;;;;;;;39.22;21.48;;;5.70;99.90;;;;;;5055701;28;20060;-74
2023/12/28 09:39:03;;;;;;;38.83;21.90;;;5.80;99.90;;;;;;5055960;28;20067;-75
2023/12/28 09:41:34;;;;;;;40.40;22.27;;;5.70;99.90;;;;;;5055539;28;20048;-74
2023/12/28 09:44:11;;;;;;;43.07;22.63;;;5.80;99.90;;;;;;5055906;28;20369;-73
2023/12/28 09:46:38;;;;;;;47.75;26.30;;;5.80;99.90;;;;;;5055556;28;20029;-74
2023/12/28 09:49:04;;;;;;;43.55;21.95;;;5.70;99.90;;;;;;5055893;28;20036;-74
2023/12/28 09:51:30;;;;;;;40.33;23.30;;;5.80;99.90;;;;;;5055169;28;20033;-74
2023/12/28 09:53:56;;;;;;;41.47;22.15;;;5.80;99.90;;;;;;5055401;28;20031;-74
2023/12/28 09:56:23;;;;;;;44.28;25.80;;;5.80;99.90;;;;;;5055262;28;20037;-73
2023/12/28 09:58:50;;;;;;;40.05;23.15;;;5.80;99.90;;;;;;5054986;28;20504;-74
2023/12/28 10:01:17;;;;;;;41.40;22.33;;;5.80;99.90;;;;;;5054683;28;20035;-74
2023/12/28 10:03:44;;;;;;;34.80;20.73;;;5.80;99.90;;;;;;5055820;28;20025;-74
2023/12/28 10:06:10;;;;;;;40.08;21.40;;;5.80;99.90;;;;;;5055190;28;20402;-73
2023/12/28 10:11:20;;;;;;;39.50;22.67;;;5.90;99.90;;;;;;5054786;28;20028;-73
2023/12/28 10:13:46;;;;;;;39.97;22.38;;;5.90;99.90;;;;;;5055265;28;20032;-75
2023/12/28 10:16:12;;;;;;;40.55;22.95;;;5.90;99.90;;;;;;5055250;28;20437;-74
2023/12/28 10:18:44;;;;;;;40.80;24.15;;;5.90;99.90;;;;;;5053581;28;20381;-74
2023/12/28 10:21:11;;;;;;;39.58;23.00;;;5.80;99.90;;;;;;5055176;28;20021;-73
2023/12/28 10:23:37;;;;;;;42.53;23.83;;;5.90;99.90;;;;;;5055000;28;20243;-74
2023/12/28 10:26:04;;;;;;;40.88;22.85;;;5.90;99.90;;;;;;5055006;28;20074;-74
2023/12/28 10:28:34;;;;;;;39.80;24.17;;;5.90;99.90;;;;;;5054238;28;20108;-74
2023/12/28 10:31:00;;;;;;;44.65;24.60;;;5.90;99.90;;;;;;5055039;28;20071;-73
2023/12/28 10:33:25;;;;;;;39.65;22.83;;;5.90;99.90;;;;;;5054498;28;20060;-74
2023/12/28 10:35:52;;;;;;;42.72;23.35;;;5.90;99.90;;;;;;5054484;28;20486;-75
2023/12/28 10:38:18;;;;;;;48.08;24.60;;;5.90;99.90;;;;;;5053437;28;20101;-73
2023/12/28 10:40:50;;;;;;;40.58;21.75;;;5.90;99.90;;;;;;5054418;28;20378;-73
2023/12/28 10:43:17;;;;;;;40.58;22.98;;;5.90;99.90;;;;;;5053099;28;20082;-74
2023/12/28 10:45:47;;;;;;;44.22;23.10;;;5.90;99.90;;;;;;5054071;28;20439;-74
2023/12/28 10:48:13;;;;;;;43.53;22.70;;;5.90;99.90;;;;;;5054551;28;20099;-74
2023/12/28 10:50:52;;;;;;;40.67;22.92;;;6.00;99.90;;;;;;5067151;28;20170;-74
2023/12/28 10:53:33;;;;;;;40.03;23.15;;;5.90;99.90;;;;;;5074346;28;20124;-73
2023/12/28 10:56:04;;;;;;;40.90;22.70;;;6.00;99.90;;;;;;5057115;28;20419;-73
2023/12/28 10:58:57;;;;;;;36.53;20.90;;;6.00;99.90;;;;;;5053570;28;20025;-73
2023/12/28 11:01:27;;;;;;;42.47;21.60;;;6.00;99.90;;;;;;5054384;28;20025;-73
2023/12/28 11:04:03;;;;;;;40.07;20.73;;;6.10;99.90;;;;;;5054129;28;20355;-74
2023/12/28 11:06:30;;;;;;;38.28;21.13;;;6.00;99.90;;;;;;5053779;28;20691;-74
2023/12/28 11:08:59;;;;;;;36.88;21.30;;;6.00;99.90;;;;;;5054312;28;20064;-73
2023/12/28 11:11:26;;;;;;;36.08;21.35;;;6.00;99.90;;;;;;5053864;28;20021;-73
2023/12/28 11:13:54;;;;;;;42.53;20.85;;;6.00;99.90;;;;;;5054317;28;20032;-74
2023/12/28 11:16:21;;;;;;;38.58;21.10;;;6.00;99.90;;;;;;5053904;28;20029;-74
2023/12/28 11:18:47;;;;;;;37.40;21.25;;;6.00;99.90;;;;;;5053937;28;20413;-74
2023/12/28 11:21:14;;;;;;;37.38;20.95;;;6.00;99.90;;;;;;5053936;28;20338;-74
2023/12/28 11:23:40;;;;;;;34.40;19.50;;;6.00;99.90;;;;;;5053280;28;20029;-73
2023/12/28 11:26:16;;;;;;;39.10;21.00;;;6.00;99.90;;;;;;5054227;28;20033;-75
2023/12/28 11:28:42;;;;;;;36.28;20.27;;;6.00;99.90;;;;;;5053435;28;20037;-73
2023/12/28 11:31:11;;;;;;;33.90;19.45;;;6.00;99.90;;;;;;5054102;28;20028;-74
2023/12/28 11:33:44;;;;;;;33.53;20.05;;;6.00;99.90;;;;;;5053284;28;20021;-73
2023/12/28 11:36:09;;;;;;;32.83;19.48;;;6.00;99.90;;;;;;5053359;28;20029;-74
2023/12/28 11:38:38;;;;;;;39.70;20.25;;;6.00;99.90;;;;;;5053074;28;20027;-74
2023/12/28 11:41:04;;;;;;;36.38;19.90;;;6.00;99.90;;;;;;5053223;28;20091;-74
2023/12/28 11:43:34;;;;;;;31.92;19.42;;;6.00;99.90;;;;;;5053217;28;20025;-74
2023/12/28 11:46:00;;;;;;;39.83;21.05;;;6.00;99.90;;;;;;5053813;28;20350;-73
2023/12/28 11:48:27;;;;;;;33.35;19.63;;;6.00;99.90;;;;;;5051927;28;20036;-74
2023/12/28 11:50:58;;;;;;;31.73;18.52;;;6.00;99.90;;;;;;5053265;28;20032;-75
2023/12/28 11:53:24;;;;;;;36.42;20.02;;;6.00;99.90;;;;;;5053149;28;20035;-74
2023/12/28 11:55:50;;;;;;;34.58;19.45;;;6.00;99.90;;;;;;5053298;28;20041;-74
2023/12/28 11:58:18;;;;;;;37.22;21.30;;;6.00;99.90;;;;;;5053503;28;20069;-74
2023/12/28 12:00:43;;;;;;;34.10;19.75;;;6.00;99.90;;;;;;5052009;28;20509;-74
2023/12/28 12:03:13;;;;;;;34.15;19.88;;;6.00;99.90;;;;;;5053279;28;20029;-74
2023/12/28 12:05:39;;;;;;;31.08;18.98;;;6.00;99.90;;;;;;5052463;28;20049;-74
2023/12/28 12:08:08;;;;;;;34.60;20.00;;;6.00;99.90;;;;;;5053036;28;20056;-74
2023/12/28 12:10:34;;;;;;;33.08;18.88;;;6.00;99.90;;;;;;5052708;28;20116;-74
2023/12/28 12:13:00;;;;;;;31.58;19.45;;;5.90;99.90;;;;;;5051800;28;20121;-73
2023/12/28 12:15:26;;;;;;;35.08;19.80;;;5.90;99.90;;;;;;5052824;28;20072;-72
2023/12/28 12:17:51;;;;;;;31.83;18.60;;;5.80;99.90;;;;;;5053091;28;20465;-73
2023/12/28 12:20:17;;;;;;;30.88;18.38;;;5.80;99.90;;;;;;5052975;28;20033;-74
2023/12/28 12:22:43;;;;;;;32.63;18.58;;;5.80;99.90;;;;;;5052518;28;20355;-73
2023/12/28 12:25:09;;;;;;;30.33;18.50;;;5.80;99.90;;;;;;5053048;28;20035;-73
2023/12/28 12:27:38;;;;;;;38.15;19.95;;;5.80;99.90;;;;;;5052744;28;20029;-73
2023/12/28 12:30:04;;;;;;;31.08;18.08;;;5.70;99.90;;;;;;5052959;28;20386;-73
2023/12/28 12:32:31;;;;;;;29.23;17.75;;;5.70;99.90;;;;;;5051112;28;20033;-74
2023/12/28 12:34:57;;;;;;;30.00;17.85;;;5.80;99.90;;;;;;5052618;28;20029;-73